Portada
METAR-TAF:

METAR-TAF

Aeroports :

Tak, Tailàndia

latitud: 16-53N, longitud: 099-09E, altitud: 121 m

Observació

L'informe es va fer fa 53 minuts, a les 07:00 UTC
Temperatura 36°C
Humitat 53%
Pressió
Visibilitat 10 km o més
Núvols disperses a una alçada de 2600 ft

METAR: VTPT 080700Z /////KT 9999 SCT026 36/25 Q//// NOSIG

Hora: 14:53 (07:53 UTC)

Pronòstic

L'informe es va fer fa 2 hores i 53 minuts, a les 05:00 UTC
Pronòstic vàlid del 08 a les 06 UTC al 09 a les 06 UTC
Vent 5 kt del Sud/Sud-Est
Visibilitat 10 km o més
Escasses núvols a una alçada de 2600 ft
Temporalment
l' 08 a les 09 UTC al 08 a les 15 UTC
Vent 15 kt del Est amb ràfegues de 30 kt
Visibilitat: 4000 m
Escasses núvols a una alçada de 1800 ft, Cumulonimbus.
Cel ennuvolat a una alçada de 2600 ft
tempesta, pluja

TAF: VTPT 080500Z 0806/0906 15005KT 9999 FEW026 TEMPO 0809/0815 10015G30KT 4000 TSRA FEW018CB BKN026

Observacions i pronòstics meteorològics de més de 4000 aeroports (METAR i TAF).

Les estacions disponibles són els punts grocs i vermells al mapa.

Posi el ratolí al punt desitjat per veure el nom de l'estació.

Feu clic per veure les observacions i els pronòstics meteorològics.

Per canviar el mapa: feu clic els botons verds amb una creu de color negre per apropar; al botó verd amb un guió per allunyar la imatge; o en les fletxes verdes per a mapes adjacents.


METAR-TAF: